sensor_id;sensor_type;location;lat;lon;timestamp;P1;durP1;ratioP1;P2;durP2;ratioP2
32038;SDS011;18549;42.286;22.688;2024-01-15T00:02:06;369.13;;;170.23;;
32038;SDS011;18549;42.286;22.688;2024-01-15T00:04:36;340.20;;;162.63;;
32038;SDS011;18549;42.286;22.688;2024-01-15T00:07:05;313.93;;;154.90;;
32038;SDS011;18549;42.286;22.688;2024-01-15T00:09:32;267.60;;;137.83;;
32038;SDS011;18549;42.286;22.688;2024-01-15T00:11:59;301.33;;;153.07;;
32038;SDS011;18549;42.286;22.688;2024-01-15T00:14:28;307.17;;;157.93;;
32038;SDS011;18549;42.286;22.688;2024-01-15T00:16:55;353.17;;;177.30;;
32038;SDS011;18549;42.286;22.688;2024-01-15T00:19:22;256.70;;;136.17;;
32038;SDS011;18549;42.286;22.688;2024-01-15T00:21:49;264.50;;;133.80;;
32038;SDS011;18549;42.286;22.688;2024-01-15T00:24:19;259.43;;;140.33;;
32038;SDS011;18549;42.286;22.688;2024-01-15T00:26:47;286.57;;;139.50;;
32038;SDS011;18549;42.286;22.688;2024-01-15T00:29:13;296.83;;;153.93;;
32038;SDS011;18549;42.286;22.688;2024-01-15T00:31:40;309.63;;;159.97;;
32038;SDS011;18549;42.286;22.688;2024-01-15T00:34:08;323.40;;;178.40;;
32038;SDS011;18549;42.286;22.688;2024-01-15T00:36:35;332.00;;;172.90;;
32038;SDS011;18549;42.286;22.688;2024-01-15T00:39:02;337.03;;;168.10;;
32038;SDS011;18549;42.286;22.688;2024-01-15T00:41:32;287.50;;;155.03;;
32038;SDS011;18549;42.286;22.688;2024-01-15T00:44:00;278.80;;;144.40;;
32038;SDS011;18549;42.286;22.688;2024-01-15T00:46:28;260.67;;;133.20;;
32038;SDS011;18549;42.286;22.688;2024-01-15T00:48:54;250.53;;;131.73;;
32038;SDS011;18549;42.286;22.688;2024-01-15T00:51:24;236.90;;;122.53;;
32038;SDS011;18549;42.286;22.688;2024-01-15T00:53:53;229.07;;;116.80;;
32038;SDS011;18549;42.286;22.688;2024-01-15T00:56:20;205.93;;;109.40;;
32038;SDS011;18549;42.286;22.688;2024-01-15T00:58:49;216.77;;;113.53;;
32038;SDS011;18549;42.286;22.688;2024-01-15T01:01:18;209.77;;;108.93;;
32038;SDS011;18549;42.286;22.688;2024-01-15T01:03:44;212.87;;;108.60;;
32038;SDS011;18549;42.286;22.688;2024-01-15T01:06:12;204.43;;;109.50;;
32038;SDS011;18549;42.286;22.688;2024-01-15T01:08:39;209.37;;;107.70;;
32038;SDS011;18549;42.286;22.688;2024-01-15T01:11:07;206.07;;;106.97;;
32038;SDS011;18549;42.286;22.688;2024-01-15T01:13:35;210.30;;;113.53;;
32038;SDS011;18549;42.286;22.688;2024-01-15T01:16:04;226.67;;;116.37;;
32038;SDS011;18549;42.286;22.688;2024-01-15T01:18:32;241.80;;;129.33;;
32038;SDS011;18549;42.286;22.688;2024-01-15T01:20:59;260.40;;;140.57;;
32038;SDS011;18549;42.286;22.688;2024-01-15T01:23:27;273.57;;;140.27;;
32038;SDS011;18549;42.286;22.688;2024-01-15T01:25:53;272.27;;;144.03;;
32038;SDS011;18549;42.286;22.688;2024-01-15T01:28:20;260.73;;;139.03;;
32038;SDS011;18549;42.286;22.688;2024-01-15T01:30:48;265.63;;;139.57;;
32038;SDS011;18549;42.286;22.688;2024-01-15T01:33:18;277.20;;;147.90;;
32038;SDS011;18549;42.286;22.688;2024-01-15T01:35:45;265.53;;;140.03;;
32038;SDS011;18549;42.286;22.688;2024-01-15T01:38:12;268.13;;;142.60;;
32038;SDS011;18549;42.286;22.688;2024-01-15T01:40:39;288.67;;;150.40;;
32038;SDS011;18549;42.286;22.688;2024-01-15T01:43:08;283.87;;;149.73;;
32038;SDS011;18549;42.286;22.688;2024-01-15T01:45:39;288.20;;;147.10;;
32038;SDS011;18549;42.286;22.688;2024-01-15T01:48:06;268.60;;;139.37;;
32038;SDS011;18549;42.286;22.688;2024-01-15T01:50:34;294.63;;;147.13;;
32038;SDS011;18549;42.286;22.688;2024-01-15T01:53:01;276.83;;;145.40;;
32038;SDS011;18549;42.286;22.688;2024-01-15T01:55:30;264.97;;;134.47;;
32038;SDS011;18549;42.286;22.688;2024-01-15T01:57:59;268.20;;;135.17;;
32038;SDS011;18549;42.286;22.688;2024-01-15T02:00:27;247.43;;;126.40;;
32038;SDS011;18549;42.286;22.688;2024-01-15T02:02:57;239.23;;;125.50;;
32038;SDS011;18549;42.286;22.688;2024-01-15T02:05:24;245.97;;;127.57;;
32038;SDS011;18549;42.286;22.688;2024-01-15T02:07:54;230.50;;;123.90;;
32038;SDS011;18549;42.286;22.688;2024-01-15T02:10:21;231.47;;;127.57;;
32038;SDS011;18549;42.286;22.688;2024-01-15T02:12:49;227.10;;;112.40;;
32038;SDS011;18549;42.286;22.688;2024-01-15T02:15:16;206.03;;;109.23;;
32038;SDS011;18549;42.286;22.688;2024-01-15T02:20:28;195.80;;;106.43;;
32038;SDS011;18549;42.286;22.688;2024-01-15T02:23:03;209.03;;;108.27;;
32038;SDS011;18549;42.286;22.688;2024-01-15T02:25:35;198.43;;;105.87;;
32038;SDS011;18549;42.286;22.688;2024-01-15T02:28:02;191.23;;;105.33;;
32038;SDS011;18549;42.286;22.688;2024-01-15T02:30:34;183.20;;;100.03;;
32038;SDS011;18549;42.286;22.688;2024-01-15T02:33:04;199.63;;;104.10;;
32038;SDS011;18549;42.286;22.688;2024-01-15T02:35:31;181.37;;;100.87;;
32038;SDS011;18549;42.286;22.688;2024-01-15T02:37:59;194.73;;;101.33;;
32038;SDS011;18549;42.286;22.688;2024-01-15T02:40:30;183.53;;;96.37;;
32038;SDS011;18549;42.286;22.688;2024-01-15T02:42:58;175.57;;;91.00;;
32038;SDS011;18549;42.286;22.688;2024-01-15T02:45:25;155.70;;;89.30;;
32038;SDS011;18549;42.286;22.688;2024-01-15T02:47:55;179.63;;;98.93;;
32038;SDS011;18549;42.286;22.688;2024-01-15T02:50:24;184.47;;;97.27;;
32038;SDS011;18549;42.286;22.688;2024-01-15T02:52:51;188.73;;;99.17;;
32038;SDS011;18549;42.286;22.688;2024-01-15T02:55:18;185.20;;;92.00;;
32038;SDS011;18549;42.286;22.688;2024-01-15T02:57:48;161.87;;;89.27;;
32038;SDS011;18549;42.286;22.688;2024-01-15T03:00:15;162.80;;;88.73;;
32038;SDS011;18549;42.286;22.688;2024-01-15T03:02:45;167.70;;;88.17;;
32038;SDS011;18549;42.286;22.688;2024-01-15T03:05:15;169.73;;;92.00;;
32038;SDS011;18549;42.286;22.688;2024-01-15T03:07:45;174.73;;;93.17;;
32038;SDS011;18549;42.286;22.688;2024-01-15T03:10:14;186.87;;;93.63;;
32038;SDS011;18549;42.286;22.688;2024-01-15T03:12:41;182.87;;;91.20;;
32038;SDS011;18549;42.286;22.688;2024-01-15T03:15:09;173.70;;;90.70;;
32038;SDS011;18549;42.286;22.688;2024-01-15T03:17:36;261.70;;;130.97;;
32038;SDS011;18549;42.286;22.688;2024-01-15T03:20:06;184.90;;;99.60;;
32038;SDS011;18549;42.286;22.688;2024-01-15T03:22:34;171.47;;;90.80;;
32038;SDS011;18549;42.286;22.688;2024-01-15T03:25:01;166.43;;;90.43;;
32038;SDS011;18549;42.286;22.688;2024-01-15T03:27:29;183.70;;;93.93;;
32038;SDS011;18549;42.286;22.688;2024-01-15T03:29:56;179.83;;;95.00;;
32038;SDS011;18549;42.286;22.688;2024-01-15T03:32:28;182.30;;;95.23;;
32038;SDS011;18549;42.286;22.688;2024-01-15T03:34:54;222.67;;;115.73;;
32038;SDS011;18549;42.286;22.688;2024-01-15T03:37:21;203.33;;;109.20;;
32038;SDS011;18549;42.286;22.688;2024-01-15T03:39:49;228.97;;;111.50;;
32038;SDS011;18549;42.286;22.688;2024-01-15T03:42:16;211.77;;;108.07;;
32038;SDS011;18549;42.286;22.688;2024-01-15T03:44:42;203.47;;;110.27;;
32038;SDS011;18549;42.286;22.688;2024-01-15T03:47:10;212.70;;;110.10;;
32038;SDS011;18549;42.286;22.688;2024-01-15T03:49:40;203.63;;;106.20;;
32038;SDS011;18549;42.286;22.688;2024-01-15T03:52:06;218.83;;;109.80;;
32038;SDS011;18549;42.286;22.688;2024-01-15T03:54:37;215.27;;;107.47;;
32038;SDS011;18549;42.286;22.688;2024-01-15T03:57:04;214.13;;;106.23;;
32038;SDS011;18549;42.286;22.688;2024-01-15T03:59:31;207.13;;;103.77;;
32038;SDS011;18549;42.286;22.688;2024-01-15T04:01:58;172.07;;;95.10;;
32038;SDS011;18549;42.286;22.688;2024-01-15T04:04:25;167.17;;;87.03;;
32038;SDS011;18549;42.286;22.688;2024-01-15T04:06:53;141.40;;;79.50;;
32038;SDS011;18549;42.286;22.688;2024-01-15T04:09:29;151.93;;;83.67;;
32038;SDS011;18549;42.286;22.688;2024-01-15T04:11:55;163.87;;;88.43;;
32038;SDS011;18549;42.286;22.688;2024-01-15T04:14:23;212.43;;;104.93;;
32038;SDS011;18549;42.286;22.688;2024-01-15T04:16:49;246.07;;;115.87;;
32038;SDS011;18549;42.286;22.688;2024-01-15T04:19:16;295.03;;;130.40;;
32038;SDS011;18549;42.286;22.688;2024-01-15T04:21:45;325.60;;;143.17;;
32038;SDS011;18549;42.286;22.688;2024-01-15T04:24:17;288.17;;;132.80;;
32038;SDS011;18549;42.286;22.688;2024-01-15T04:26:44;294.97;;;134.03;;
32038;SDS011;18549;42.286;22.688;2024-01-15T04:29:11;256.13;;;118.70;;
32038;SDS011;18549;42.286;22.688;2024-01-15T04:31:39;198.93;;;98.77;;
32038;SDS011;18549;42.286;22.688;2024-01-15T04:34:09;183.07;;;92.87;;
32038;SDS011;18549;42.286;22.688;2024-01-15T04:36:38;168.87;;;88.00;;
32038;SDS011;18549;42.286;22.688;2024-01-15T04:39:06;164.93;;;90.90;;
32038;SDS011;18549;42.286;22.688;2024-01-15T04:41:34;181.13;;;93.90;;
32038;SDS011;18549;42.286;22.688;2024-01-15T04:44:03;168.83;;;89.10;;
32038;SDS011;18549;42.286;22.688;2024-01-15T04:46:30;154.67;;;79.33;;
32038;SDS011;18549;42.286;22.688;2024-01-15T04:48:56;149.93;;;83.13;;
32038;SDS011;18549;42.286;22.688;2024-01-15T04:51:23;151.40;;;82.43;;
32038;SDS011;18549;42.286;22.688;2024-01-15T04:53:51;147.13;;;78.93;;
32038;SDS011;18549;42.286;22.688;2024-01-15T04:56:19;140.53;;;76.77;;
32038;SDS011;18549;42.286;22.688;2024-01-15T04:58:50;122.60;;;68.23;;
32038;SDS011;18549;42.286;22.688;2024-01-15T05:01:16;122.27;;;65.03;;
32038;SDS011;18549;42.286;22.688;2024-01-15T05:03:45;127.63;;;66.33;;
32038;SDS011;18549;42.286;22.688;2024-01-15T05:06:12;132.53;;;66.57;;
32038;SDS011;18549;42.286;22.688;2024-01-15T05:08:39;130.13;;;71.43;;
32038;SDS011;18549;42.286;22.688;2024-01-15T05:11:09;152.57;;;79.67;;
32038;SDS011;18549;42.286;22.688;2024-01-15T05:13:36;146.27;;;79.97;;
32038;SDS011;18549;42.286;22.688;2024-01-15T05:16:04;154.23;;;76.80;;
32038;SDS011;18549;42.286;22.688;2024-01-15T05:18:33;189.73;;;94.20;;
32038;SDS011;18549;42.286;22.688;2024-01-15T05:21:01;201.03;;;95.47;;
32038;SDS011;18549;42.286;22.688;2024-01-15T05:23:28;187.67;;;94.30;;
32038;SDS011;18549;42.286;22.688;2024-01-15T05:25:54;211.03;;;99.77;;
32038;SDS011;18549;42.286;22.688;2024-01-15T05:28:23;215.00;;;106.00;;
32038;SDS011;18549;42.286;22.688;2024-01-15T05:30:51;228.37;;;106.77;;
32038;SDS011;18549;42.286;22.688;2024-01-15T05:33:21;222.60;;;105.97;;
32038;SDS011;18549;42.286;22.688;2024-01-15T05:35:49;238.23;;;114.50;;
32038;SDS011;18549;42.286;22.688;2024-01-15T05:38:16;237.00;;;118.27;;
32038;SDS011;18549;42.286;22.688;2024-01-15T05:40:45;211.90;;;102.90;;
32038;SDS011;18549;42.286;22.688;2024-01-15T05:43:12;174.03;;;94.47;;
32038;SDS011;18549;42.286;22.688;2024-01-15T05:45:42;206.10;;;106.47;;
32038;SDS011;18549;42.286;22.688;2024-01-15T05:48:09;164.33;;;83.53;;
32038;SDS011;18549;42.286;22.688;2024-01-15T05:50:40;144.30;;;79.87;;
32038;SDS011;18549;42.286;22.688;2024-01-15T05:53:07;139.03;;;78.27;;
32038;SDS011;18549;42.286;22.688;2024-01-15T05:55:38;121.33;;;65.90;;
32038;SDS011;18549;42.286;22.688;2024-01-15T05:58:05;134.00;;;65.73;;
32038;SDS011;18549;42.286;22.688;2024-01-15T06:00:32;119.73;;;64.23;;
32038;SDS011;18549;42.286;22.688;2024-01-15T06:03:01;132.97;;;68.57;;
32038;SDS011;18549;42.286;22.688;2024-01-15T06:05:32;134.10;;;72.23;;
32038;SDS011;18549;42.286;22.688;2024-01-15T06:08:05;125.80;;;68.33;;
32038;SDS011;18549;42.286;22.688;2024-01-15T06:10:34;135.30;;;67.57;;
32038;SDS011;18549;42.286;22.688;2024-01-15T06:13:02;150.47;;;81.33;;
32038;SDS011;18549;42.286;22.688;2024-01-15T06:15:29;138.50;;;78.67;;
32038;SDS011;18549;42.286;22.688;2024-01-15T06:17:55;137.17;;;76.57;;
32038;SDS011;18549;42.286;22.688;2024-01-15T06:20:22;140.93;;;79.53;;
32038;SDS011;18549;42.286;22.688;2024-01-15T06:22:50;162.53;;;88.20;;
32038;SDS011;18549;42.286;22.688;2024-01-15T06:25:21;176.37;;;90.83;;
32038;SDS011;18549;42.286;22.688;2024-01-15T06:27:48;194.73;;;97.73;;
32038;SDS011;18549;42.286;22.688;2024-01-15T06:30:14;276.20;;;129.73;;
32038;SDS011;18549;42.286;22.688;2024-01-15T06:32:44;226.17;;;123.57;;
32038;SDS011;18549;42.286;22.688;2024-01-15T06:35:12;221.23;;;115.77;;
32038;SDS011;18549;42.286;22.688;2024-01-15T06:37:40;209.63;;;103.53;;
32038;SDS011;18549;42.286;22.688;2024-01-15T06:40:07;220.50;;;115.03;;
32038;SDS011;18549;42.286;22.688;2024-01-15T06:42:37;227.27;;;107.90;;
32038;SDS011;18549;42.286;22.688;2024-01-15T06:45:08;195.13;;;106.87;;
32038;SDS011;18549;42.286;22.688;2024-01-15T06:47:38;219.53;;;109.13;;
32038;SDS011;18549;42.286;22.688;2024-01-15T06:50:05;228.20;;;118.87;;
32038;SDS011;18549;42.286;22.688;2024-01-15T06:52:32;214.37;;;112.73;;
32038;SDS011;18549;42.286;22.688;2024-01-15T06:55:09;218.93;;;116.23;;
32038;SDS011;18549;42.286;22.688;2024-01-15T06:57:41;300.80;;;145.97;;
32038;SDS011;18549;42.286;22.688;2024-01-15T07:00:08;216.77;;;119.40;;
32038;SDS011;18549;42.286;22.688;2024-01-15T07:02:36;216.33;;;117.50;;
32038;SDS011;18549;42.286;22.688;2024-01-15T07:05:03;253.53;;;126.23;;
32038;SDS011;18549;42.286;22.688;2024-01-15T07:07:33;232.83;;;125.03;;
32038;SDS011;18549;42.286;22.688;2024-01-15T07:10:01;223.77;;;121.33;;
32038;SDS011;18549;42.286;22.688;2024-01-15T07:12:29;244.30;;;124.53;;
32038;SDS011;18549;42.286;22.688;2024-01-15T07:14:58;238.67;;;123.60;;
32038;SDS011;18549;42.286;22.688;2024-01-15T07:17:29;268.70;;;129.83;;
32038;SDS011;18549;42.286;22.688;2024-01-15T07:19:58;201.03;;;109.07;;
32038;SDS011;18549;42.286;22.688;2024-01-15T07:22:50;203.87;;;106.50;;
32038;SDS011;18549;42.286;22.688;2024-01-15T07:25:29;195.17;;;104.43;;
32038;SDS011;18549;42.286;22.688;2024-01-15T07:27:56;187.50;;;104.87;;
32038;SDS011;18549;42.286;22.688;2024-01-15T07:30:26;207.33;;;111.33;;
32038;SDS011;18549;42.286;22.688;2024-01-15T07:32:54;202.87;;;107.73;;
32038;SDS011;18549;42.286;22.688;2024-01-15T07:35:22;174.97;;;96.87;;
32038;SDS011;18549;42.286;22.688;2024-01-15T07:37:49;163.97;;;86.30;;
32038;SDS011;18549;42.286;22.688;2024-01-15T07:40:17;166.50;;;91.00;;
32038;SDS011;18549;42.286;22.688;2024-01-15T07:42:45;183.50;;;105.47;;
32038;SDS011;18549;42.286;22.688;2024-01-15T07:45:12;198.50;;;109.40;;
32038;SDS011;18549;42.286;22.688;2024-01-15T07:47:42;224.63;;;115.33;;
32038;SDS011;18549;42.286;22.688;2024-01-15T07:50:09;209.67;;;113.63;;
32038;SDS011;18549;42.286;22.688;2024-01-15T07:52:36;188.23;;;108.53;;
32038;SDS011;18549;42.286;22.688;2024-01-15T07:55:07;195.43;;;106.23;;
32038;SDS011;18549;42.286;22.688;2024-01-15T07:57:34;196.83;;;107.87;;
32038;SDS011;18549;42.286;22.688;2024-01-15T08:00:03;193.53;;;105.90;;
32038;SDS011;18549;42.286;22.688;2024-01-15T08:02:35;196.63;;;108.87;;
32038;SDS011;18549;42.286;22.688;2024-01-15T08:05:04;217.90;;;117.10;;
32038;SDS011;18549;42.286;22.688;2024-01-15T08:07:31;242.10;;;128.53;;
32038;SDS011;18549;42.286;22.688;2024-01-15T08:09:58;248.27;;;138.90;;
32038;SDS011;18549;42.286;22.688;2024-01-15T08:12:28;254.23;;;142.43;;
32038;SDS011;18549;42.286;22.688;2024-01-15T08:15:04;259.97;;;144.97;;
32038;SDS011;18549;42.286;22.688;2024-01-15T08:17:32;270.20;;;142.73;;
32038;SDS011;18549;42.286;22.688;2024-01-15T08:19:59;260.40;;;141.77;;
32038;SDS011;18549;42.286;22.688;2024-01-15T08:22:33;266.67;;;145.13;;
32038;SDS011;18549;42.286;22.688;2024-01-15T08:25:04;263.90;;;144.97;;
32038;SDS011;18549;42.286;22.688;2024-01-15T08:27:33;280.60;;;148.57;;
32038;SDS011;18549;42.286;22.688;2024-01-15T08:30:01;276.13;;;148.13;;
32038;SDS011;18549;42.286;22.688;2024-01-15T08:32:29;265.33;;;143.50;;
32038;SDS011;18549;42.286;22.688;2024-01-15T08:34:56;235.13;;;126.40;;
32038;SDS011;18549;42.286;22.688;2024-01-15T08:37:24;212.50;;;114.67;;
32038;SDS011;18549;42.286;22.688;2024-01-15T08:39:53;211.97;;;117.27;;
32038;SDS011;18549;42.286;22.688;2024-01-15T08:42:22;207.07;;;114.93;;
32038;SDS011;18549;42.286;22.688;2024-01-15T08:44:49;190.13;;;103.97;;
32038;SDS011;18549;42.286;22.688;2024-01-15T08:47:18;171.53;;;95.43;;
32038;SDS011;18549;42.286;22.688;2024-01-15T08:49:47;157.50;;;82.97;;
32038;SDS011;18549;42.286;22.688;2024-01-15T08:52:14;146.27;;;83.13;;
32038;SDS011;18549;42.286;22.688;2024-01-15T08:54:42;146.03;;;80.30;;
32038;SDS011;18549;42.286;22.688;2024-01-15T08:57:13;147.63;;;75.33;;
32038;SDS011;18549;42.286;22.688;2024-01-15T08:59:39;146.00;;;78.43;;
32038;SDS011;18549;42.286;22.688;2024-01-15T09:02:06;148.23;;;83.67;;
32038;SDS011;18549;42.286;22.688;2024-01-15T09:04:39;149.20;;;84.53;;
32038;SDS011;18549;42.286;22.688;2024-01-15T09:07:09;151.93;;;86.63;;
32038;SDS011;18549;42.286;22.688;2024-01-15T09:09:36;158.67;;;89.80;;
32038;SDS011;18549;42.286;22.688;2024-01-15T09:12:06;166.07;;;94.63;;
32038;SDS011;18549;42.286;22.688;2024-01-15T09:14:35;150.33;;;87.30;;
32038;SDS011;18549;42.286;22.688;2024-01-15T09:17:02;145.47;;;82.97;;
32038;SDS011;18549;42.286;22.688;2024-01-15T09:19:30;152.40;;;86.80;;
32038;SDS011;18549;42.286;22.688;2024-01-15T09:21:57;169.13;;;88.50;;
32038;SDS011;18549;42.286;22.688;2024-01-15T09:24:24;152.50;;;87.53;;
32038;SDS011;18549;42.286;22.688;2024-01-15T09:26:52;148.57;;;86.13;;
32038;SDS011;18549;42.286;22.688;2024-01-15T09:29:18;153.23;;;89.70;;
32038;SDS011;18549;42.286;22.688;2024-01-15T09:31:47;170.50;;;91.47;;
32038;SDS011;18549;42.286;22.688;2024-01-15T09:34:13;156.30;;;85.17;;
32038;SDS011;18549;42.286;22.688;2024-01-15T09:36:44;161.37;;;87.17;;
32038;SDS011;18549;42.286;22.688;2024-01-15T09:39:12;155.57;;;89.20;;
32038;SDS011;18549;42.286;22.688;2024-01-15T09:41:40;168.13;;;92.07;;
32038;SDS011;18549;42.286;22.688;2024-01-15T09:44:08;169.80;;;99.43;;
32038;SDS011;18549;42.286;22.688;2024-01-15T09:46:36;197.03;;;108.70;;
32038;SDS011;18549;42.286;22.688;2024-01-15T09:49:07;195.77;;;109.77;;
32038;SDS011;18549;42.286;22.688;2024-01-15T09:51:36;201.67;;;112.00;;
32038;SDS011;18549;42.286;22.688;2024-01-15T09:54:06;188.13;;;104.73;;
32038;SDS011;18549;42.286;22.688;2024-01-15T09:56:35;189.87;;;102.83;;
32038;SDS011;18549;42.286;22.688;2024-01-15T09:59:02;195.47;;;109.03;;
32038;SDS011;18549;42.286;22.688;2024-01-15T10:01:34;208.43;;;109.10;;
32038;SDS011;18549;42.286;22.688;2024-01-15T10:04:02;165.07;;;95.03;;
32038;SDS011;18549;42.286;22.688;2024-01-15T10:06:32;172.70;;;94.83;;
32038;SDS011;18549;42.286;22.688;2024-01-15T10:09:03;150.70;;;91.57;;
32038;SDS011;18549;42.286;22.688;2024-01-15T10:11:34;155.97;;;92.00;;
32038;SDS011;18549;42.286;22.688;2024-01-15T10:14:02;163.47;;;94.43;;
32038;SDS011;18549;42.286;22.688;2024-01-15T10:16:30;180.13;;;103.13;;
32038;SDS011;18549;42.286;22.688;2024-01-15T10:18:57;175.10;;;95.20;;
32038;SDS011;18549;42.286;22.688;2024-01-15T10:21:24;171.97;;;96.67;;
32038;SDS011;18549;42.286;22.688;2024-01-15T10:23:53;165.83;;;88.90;;
32038;SDS011;18549;42.286;22.688;2024-01-15T10:26:24;166.57;;;93.90;;
32038;SDS011;18549;42.286;22.688;2024-01-15T10:28:52;156.97;;;95.43;;
32038;SDS011;18549;42.286;22.688;2024-01-15T10:31:19;167.20;;;96.53;;
32038;SDS011;18549;42.286;22.688;2024-01-15T10:33:47;174.70;;;98.27;;
32038;SDS011;18549;42.286;22.688;2024-01-15T10:36:14;190.53;;;106.57;;
32038;SDS011;18549;42.286;22.688;2024-01-15T10:38:42;186.13;;;103.83;;
32038;SDS011;18549;42.286;22.688;2024-01-15T10:41:13;197.07;;;109.37;;
32038;SDS011;18549;42.286;22.688;2024-01-15T10:43:42;197.33;;;112.90;;
32038;SDS011;18549;42.286;22.688;2024-01-15T10:46:10;178.83;;;108.90;;
32038;SDS011;18549;42.286;22.688;2024-01-15T10:48:39;193.03;;;111.77;;
32038;SDS011;18549;42.286;22.688;2024-01-15T10:51:07;178.80;;;107.83;;
32038;SDS011;18549;42.286;22.688;2024-01-15T10:53:37;203.83;;;113.63;;
32038;SDS011;18549;42.286;22.688;2024-01-15T10:56:05;208.13;;;118.87;;
32038;SDS011;18549;42.286;22.688;2024-01-15T10:58:36;197.10;;;115.77;;
32038;SDS011;18549;42.286;22.688;2024-01-15T11:01:05;203.07;;;113.63;;
32038;SDS011;18549;42.286;22.688;2024-01-15T11:03:33;196.50;;;111.90;;
32038;SDS011;18549;42.286;22.688;2024-01-15T11:06:03;211.27;;;115.63;;
32038;SDS011;18549;42.286;22.688;2024-01-15T11:08:42;218.20;;;119.07;;
32038;SDS011;18549;42.286;22.688;2024-01-15T11:11:09;220.73;;;120.77;;
32038;SDS011;18549;42.286;22.688;2024-01-15T11:13:41;214.73;;;120.67;;
32038;SDS011;18549;42.286;22.688;2024-01-15T11:16:09;274.40;;;148.60;;
32038;SDS011;18549;42.286;22.688;2024-01-15T11:18:37;222.77;;;125.70;;
32038;SDS011;18549;42.286;22.688;2024-01-15T11:21:22;219.17;;;122.33;;
32038;SDS011;18549;42.286;22.688;2024-01-15T11:23:53;217.37;;;124.33;;
32038;SDS011;18549;42.286;22.688;2024-01-15T11:26:28;216.90;;;127.07;;
32038;SDS011;18549;42.286;22.688;2024-01-15T11:29:04;211.60;;;125.00;;
32038;SDS011;18549;42.286;22.688;2024-01-15T11:37:25;194.33;;;107.53;;
32038;SDS011;18549;42.286;22.688;2024-01-15T11:39:54;198.77;;;111.80;;
32038;SDS011;18549;42.286;22.688;2024-01-15T11:42:22;185.67;;;108.63;;
32038;SDS011;18549;42.286;22.688;2024-01-15T11:44:52;199.10;;;106.10;;
32038;SDS011;18549;42.286;22.688;2024-01-15T11:47:26;185.47;;;102.73;;
32038;SDS011;18549;42.286;22.688;2024-01-15T11:50:18;168.87;;;97.90;;
32038;SDS011;18549;42.286;22.688;2024-01-15T11:52:49;166.97;;;94.57;;
32038;SDS011;18549;42.286;22.688;2024-01-15T11:55:27;132.40;;;78.40;;
32038;SDS011;18549;42.286;22.688;2024-01-15T11:57:57;134.97;;;74.87;;
32038;SDS011;18549;42.286;22.688;2024-01-15T12:03:20;98.37;;;56.70;;
32038;SDS011;18549;42.286;22.688;2024-01-15T12:05:47;98.33;;;58.20;;
32038;SDS011;18549;42.286;22.688;2024-01-15T12:08:20;67.77;;;45.13;;
32038;SDS011;18549;42.286;22.688;2024-01-15T12:10:51;72.63;;;42.37;;
32038;SDS011;18549;42.286;22.688;2024-01-15T12:13:18;94.20;;;54.80;;
32038;SDS011;18549;42.286;22.688;2024-01-15T12:15:47;96.90;;;57.00;;
32038;SDS011;18549;42.286;22.688;2024-01-15T12:18:18;112.03;;;55.07;;
32038;SDS011;18549;42.286;22.688;2024-01-15T12:20:45;85.07;;;52.73;;
32038;SDS011;18549;42.286;22.688;2024-01-15T12:23:13;90.77;;;51.47;;
32038;SDS011;18549;42.286;22.688;2024-01-15T12:25:40;90.90;;;52.43;;
32038;SDS011;18549;42.286;22.688;2024-01-15T12:28:07;98.23;;;52.50;;
32038;SDS011;18549;42.286;22.688;2024-01-15T12:30:35;97.23;;;56.73;;
32038;SDS011;18549;42.286;22.688;2024-01-15T12:33:03;99.67;;;55.53;;
32038;SDS011;18549;42.286;22.688;2024-01-15T12:35:34;99.30;;;55.53;;
32038;SDS011;18549;42.286;22.688;2024-01-15T12:38:00;83.67;;;48.33;;
32038;SDS011;18549;42.286;22.688;2024-01-15T12:40:28;72.67;;;43.67;;
32038;SDS011;18549;42.286;22.688;2024-01-15T12:42:57;91.13;;;50.33;;
32038;SDS011;18549;42.286;22.688;2024-01-15T12:45:24;92.63;;;55.63;;
32038;SDS011;18549;42.286;22.688;2024-01-15T12:47:53;106.97;;;54.00;;
32038;SDS011;18549;42.286;22.688;2024-01-15T12:50:23;105.07;;;56.33;;
32038;SDS011;18549;42.286;22.688;2024-01-15T12:52:53;87.93;;;53.87;;
32038;SDS011;18549;42.286;22.688;2024-01-15T12:55:19;98.63;;;55.30;;
32038;SDS011;18549;42.286;22.688;2024-01-15T12:57:47;87.63;;;53.60;;
32038;SDS011;18549;42.286;22.688;2024-01-15T13:00:15;96.87;;;56.97;;
32038;SDS011;18549;42.286;22.688;2024-01-15T13:02:43;89.73;;;52.50;;
32038;SDS011;18549;42.286;22.688;2024-01-15T13:05:10;91.90;;;53.50;;
32038;SDS011;18549;42.286;22.688;2024-01-15T13:07:38;84.23;;;50.10;;
32038;SDS011;18549;42.286;22.688;2024-01-15T13:10:07;102.67;;;55.57;;
32038;SDS011;18549;42.286;22.688;2024-01-15T13:12:37;101.13;;;59.97;;
32038;SDS011;18549;42.286;22.688;2024-01-15T13:15:05;122.13;;;68.10;;
32038;SDS011;18549;42.286;22.688;2024-01-15T13:17:37;128.93;;;70.53;;
32038;SDS011;18549;42.286;22.688;2024-01-15T13:20:05;131.10;;;72.83;;
32038;SDS011;18549;42.286;22.688;2024-01-15T13:22:37;135.00;;;72.60;;
32038;SDS011;18549;42.286;22.688;2024-01-15T13:25:08;140.37;;;78.93;;
32038;SDS011;18549;42.286;22.688;2024-01-15T13:27:37;141.20;;;81.23;;
32038;SDS011;18549;42.286;22.688;2024-01-15T13:30:04;133.77;;;76.83;;
32038;SDS011;18549;42.286;22.688;2024-01-15T13:32:37;130.90;;;71.37;;
32038;SDS011;18549;42.286;22.688;2024-01-15T13:35:04;156.63;;;90.70;;
32038;SDS011;18549;42.286;22.688;2024-01-15T13:37:39;159.10;;;84.00;;
32038;SDS011;18549;42.286;22.688;2024-01-15T13:40:09;146.97;;;75.30;;
32038;SDS011;18549;42.286;22.688;2024-01-15T13:42:41;172.20;;;86.40;;
32038;SDS011;18549;42.286;22.688;2024-01-15T13:45:08;167.80;;;81.97;;
32038;SDS011;18549;42.286;22.688;2024-01-15T13:47:35;143.93;;;65.67;;
32038;SDS011;18549;42.286;22.688;2024-01-15T13:50:03;126.47;;;58.20;;
32038;SDS011;18549;42.286;22.688;2024-01-15T13:52:31;78.50;;;44.70;;
32038;SDS011;18549;42.286;22.688;2024-01-15T13:54:58;80.07;;;44.70;;
32038;SDS011;18549;42.286;22.688;2024-01-15T13:57:29;77.10;;;44.57;;
32038;SDS011;18549;42.286;22.688;2024-01-15T13:59:57;106.37;;;48.17;;
32038;SDS011;18549;42.286;22.688;2024-01-15T14:02:23;84.27;;;49.53;;
32038;SDS011;18549;42.286;22.688;2024-01-15T14:04:50;103.37;;;56.13;;
32038;SDS011;18549;42.286;22.688;2024-01-15T14:07:18;118.13;;;61.50;;
32038;SDS011;18549;42.286;22.688;2024-01-15T14:09:45;110.17;;;62.60;;
32038;SDS011;18549;42.286;22.688;2024-01-15T14:12:15;154.30;;;85.20;;